createdAt,value
2022-12-01T00:02:14.705Z,3.45
2022-12-01T00:05:17.754Z,3.57
2022-12-01T00:08:20.443Z,3.33
2022-12-01T00:11:23.398Z,3.50
2022-12-01T00:14:25.952Z,3.63
2022-12-01T00:17:30.378Z,3.53
2022-12-01T00:20:34.982Z,3.65
2022-12-01T00:23:37.840Z,3.74
2022-12-01T00:26:41.124Z,3.78
2022-12-01T00:29:44.146Z,4.05
2022-12-01T00:32:47.404Z,3.83
2022-12-01T00:35:57.883Z,3.61
2022-12-01T00:39:00.525Z,3.71
2022-12-01T00:42:04.657Z,3.74
2022-12-01T00:45:09.710Z,3.73
2022-12-01T00:48:12.630Z,3.72
2022-12-01T00:51:15.301Z,3.57
2022-12-01T00:54:18.255Z,3.44
2022-12-01T00:57:21.002Z,3.62
2022-12-01T01:00:25.113Z,3.60
2022-12-01T01:03:29.570Z,3.74
2022-12-01T01:06:32.654Z,3.66
2022-12-01T01:09:35.329Z,3.52
2022-12-01T01:12:39.544Z,3.38
2022-12-01T01:15:42.321Z,3.20
2022-12-01T01:18:45.880Z,2.95
2022-12-01T01:21:49.722Z,2.86
2022-12-01T01:24:52.668Z,2.60
2022-12-01T01:27:55.258Z,2.58
2022-12-01T01:30:58.845Z,2.61
2022-12-01T01:34:01.557Z,2.52
2022-12-01T01:37:07.871Z,2.55
2022-12-01T01:40:11.018Z,2.46
2022-12-01T01:43:19.070Z,2.40
2022-12-01T01:46:26.555Z,2.31
2022-12-01T01:49:29.562Z,2.38
2022-12-01T01:52:36.117Z,2.31
2022-12-01T01:55:39.324Z,2.23
2022-12-01T01:58:42.846Z,2.23
2022-12-01T02:01:56.393Z,2.17
2022-12-01T02:05:02.937Z,2.23
2022-12-01T02:08:06.408Z,1.94
2022-12-01T02:11:28.131Z,1.82
2022-12-01T02:14:30.736Z,1.60
2022-12-01T02:17:57.047Z,1.52
2022-12-01T02:21:24.895Z,1.59
2022-12-01T02:24:51.056Z,1.68
2022-12-01T02:28:14.526Z,1.67
2022-12-01T02:31:25.845Z,1.53
2022-12-01T02:34:34.868Z,1.50
2022-12-01T02:37:46.553Z,1.44
2022-12-01T02:40:56.065Z,1.71
2022-12-01T02:44:31.451Z,1.61
2022-12-01T02:47:36.718Z,1.47
2022-12-01T02:50:40.906Z,1.49
2022-12-01T02:53:44.574Z,1.51
2022-12-01T02:56:52.323Z,1.31
2022-12-01T02:59:55.627Z,1.50
2022-12-01T03:03:27.599Z,1.40
2022-12-01T03:07:02.682Z,1.16
2022-12-01T03:10:17.914Z,1.30
2022-12-01T03:13:40.728Z,1.43
2022-12-01T03:16:53.934Z,1.28
2022-12-01T03:20:08.852Z,1.38
2022-12-01T03:23:16.823Z,1.08
2022-12-01T03:26:23.599Z,1.34
2022-12-01T03:29:32.064Z,1.28
2022-12-01T03:32:50.588Z,1.19
2022-12-01T03:36:03.410Z,0.85
2022-12-01T03:39:12.408Z,0.68
2022-12-01T03:42:23.716Z,0.83
2022-12-01T03:45:47.918Z,0.87
2022-12-01T03:48:54.459Z,0.76
2022-12-01T03:52:18.525Z,0.76
2022-12-01T03:55:37.909Z,0.82
2022-12-01T03:58:45.568Z,0.55
2022-12-01T04:01:48.869Z,0.80
2022-12-01T04:04:51.899Z,0.58
2022-12-01T04:07:54.714Z,0.66
2022-12-01T04:10:57.689Z,0.58
2022-12-01T04:14:00.369Z,0.55
2022-12-01T04:17:03.366Z,0.25
2022-12-01T04:20:10.278Z,0.21
2022-12-01T04:23:36.395Z,0.28
2022-12-01T04:26:40.309Z,0.02
2022-12-01T04:29:43.239Z,0.13
2022-12-01T04:32:45.897Z,0.13
2022-12-01T04:36:01.710Z,0.16
2022-12-01T04:39:04.533Z,0.08
2022-12-01T04:42:07.896Z,0.03
2022-12-01T04:45:10.712Z,-0.05
2022-12-01T04:48:17.732Z,0.12
2022-12-01T04:51:23.894Z,0.30
2022-12-01T04:54:27.171Z,0.05
2022-12-01T04:57:29.979Z,-0.13
2022-12-01T05:00:33.629Z,-0.08
2022-12-01T05:03:38.663Z,-0.24
2022-12-01T05:06:41.670Z,-0.05
2022-12-01T05:09:44.233Z,-0.06
2022-12-01T05:12:47.111Z,-0.13
2022-12-01T05:15:49.896Z,0.16
2022-12-01T05:19:16.031Z,0.06
2022-12-01T05:22:31.450Z,0.24
2022-12-01T05:25:42.674Z,0.37
2022-12-01T05:28:45.272Z,0.74
2022-12-01T05:31:48.283Z,0.46
2022-12-01T05:34:51.010Z,0.36
2022-12-01T05:37:53.965Z,0.31
2022-12-01T05:40:56.740Z,-0.11
2022-12-01T05:43:59.690Z,-0.26
2022-12-01T05:47:04.887Z,-0.07
2022-12-01T05:50:08.627Z,-0.18
2022-12-01T05:53:13.159Z,-0.13
2022-12-01T05:56:15.990Z,-0.11
2022-12-01T05:59:18.531Z,-0.07
2022-12-01T06:02:22.000Z,-0.17
2022-12-01T06:05:26.356Z,-0.07
2022-12-01T06:08:28.980Z,-0.04
2022-12-01T06:11:31.928Z,-0.21
2022-12-01T06:14:34.431Z,-0.07
2022-12-01T06:17:40.372Z,-0.21
2022-12-01T06:20:43.425Z,-0.21
2022-12-01T06:23:46.405Z,-0.33
2022-12-01T06:26:49.091Z,-0.38
2022-12-01T06:29:53.169Z,-0.31
2022-12-01T06:32:55.994Z,-0.45
2022-12-01T06:36:05.522Z,-0.38
2022-12-01T06:39:12.479Z,-0.47
2022-12-01T06:42:15.692Z,-0.32
2022-12-01T06:45:18.430Z,-0.28
2022-12-01T06:48:21.472Z,-0.49
2022-12-01T06:51:24.102Z,-0.56
2022-12-01T06:54:28.394Z,-0.46
2022-12-01T06:57:31.580Z,-0.33
2022-12-01T07:00:34.509Z,-0.39
2022-12-01T07:03:39.098Z,-0.29
2022-12-01T07:06:42.690Z,-0.18
2022-12-01T07:09:45.575Z,-0.13
2022-12-01T07:12:48.553Z,-0.14
2022-12-01T07:15:52.131Z,-0.09
2022-12-01T07:18:55.138Z,-0.10
2022-12-01T07:21:57.726Z,-0.08
2022-12-01T07:25:00.625Z,-0.03
2022-12-01T07:28:04.517Z,0.05
2022-12-01T07:31:13.862Z,0.15
2022-12-01T07:34:16.505Z,0.23
2022-12-01T07:37:19.454Z,0.26
2022-12-01T07:40:22.272Z,0.28
2022-12-01T07:43:25.294Z,0.46
2022-12-01T07:46:29.026Z,0.55
2022-12-01T07:49:32.098Z,0.66
2022-12-01T07:52:34.667Z,0.72
2022-12-01T07:55:37.712Z,0.80
2022-12-01T07:58:40.565Z,0.87
2022-12-01T08:01:44.888Z,0.96
2022-12-01T08:04:47.954Z,0.94
2022-12-01T08:07:50.625Z,0.96
2022-12-01T08:10:53.981Z,1.05
2022-12-01T08:13:56.963Z,1.20
2022-12-01T08:16:59.892Z,1.36
2022-12-01T08:20:02.625Z,1.59
2022-12-01T08:23:05.605Z,2.01
2022-12-01T08:26:13.021Z,2.56
2022-12-01T08:29:20.081Z,3.15
2022-12-01T08:32:23.186Z,4.07
2022-12-01T08:35:26.180Z,5.19
2022-12-01T09:57:37.033Z,13.57
2022-12-01T10:00:43.966Z,13.42
2022-12-01T10:03:54.721Z,13.95
2022-12-01T10:07:25.336Z,13.78
2022-12-01T10:10:38.328Z,14.18
2022-12-01T10:13:43.746Z,12.57
2022-12-01T10:17:15.305Z,11.00
2022-12-01T10:20:22.557Z,10.36
2022-12-01T10:23:40.606Z,9.70
2022-12-01T10:26:57.949Z,9.66
2022-12-01T10:30:10.302Z,9.57
2022-12-01T10:33:41.854Z,9.78
2022-12-01T10:36:44.861Z,10.36
2022-12-01T10:39:51.990Z,10.58
2022-12-01T10:42:55.503Z,10.79
2022-12-01T10:46:01.573Z,10.60
2022-12-01T10:49:16.273Z,10.01
2022-12-01T10:52:41.558Z,11.13
2022-12-01T10:55:48.170Z,12.37
2022-12-01T10:58:55.378Z,12.48
2022-12-01T11:01:59.783Z,12.36
2022-12-01T11:05:18.785Z,13.20
2022-12-01T11:08:46.997Z,12.90
2022-12-01T11:12:01.787Z,13.65
2022-12-01T11:15:05.629Z,13.36
2022-12-01T11:18:29.974Z,12.70
2022-12-01T11:21:33.137Z,12.82
2022-12-01T11:24:55.386Z,13.43
2022-12-01T11:28:02.123Z,12.74
2022-12-01T11:31:10.983Z,12.85
2022-12-01T11:34:25.692Z,13.69
2022-12-01T11:37:38.150Z,12.96
2022-12-01T11:40:58.761Z,13.00
2022-12-01T11:44:09.157Z,13.68
2022-12-01T11:47:24.640Z,14.04
2022-12-01T11:50:31.778Z,14.16
2022-12-01T11:53:37.599Z,14.29
2022-12-01T11:56:41.963Z,14.54
2022-12-01T11:59:45.108Z,14.87
2022-12-01T12:03:20.686Z,14.99
2022-12-01T12:06:39.853Z,14.88
2022-12-01T12:09:51.013Z,15.13
2022-12-01T12:13:09.788Z,15.02
2022-12-01T12:16:50.893Z,15.08
2022-12-01T12:20:27.794Z,14.56
2022-12-01T12:23:35.136Z,14.34
2022-12-01T12:26:50.438Z,14.35
2022-12-01T12:29:53.104Z,14.46
2022-12-01T12:33:19.859Z,14.50
2022-12-01T12:36:28.026Z,14.27
2022-12-01T12:39:47.842Z,13.98
2022-12-01T12:43:07.034Z,13.93
2022-12-01T12:46:23.131Z,13.23
2022-12-01T12:49:35.872Z,12.65
2022-12-01T12:52:54.517Z,12.32
2022-12-01T12:56:04.987Z,11.93
2022-12-01T12:59:35.491Z,11.89
2022-12-01T13:02:44.422Z,11.88
2022-12-01T13:06:00.785Z,11.61
2022-12-01T13:09:11.551Z,11.04
2022-12-01T13:12:17.327Z,11.20
2022-12-01T13:15:21.607Z,10.86
2022-12-01T13:18:39.773Z,9.92
2022-12-01T13:21:45.363Z,9.28
2022-12-01T13:24:48.481Z,8.80
2022-12-01T13:27:52.594Z,8.42
2022-12-01T13:31:01.949Z,8.19
2022-12-01T13:34:06.263Z,7.75
2022-12-01T13:37:11.735Z,7.46
2022-12-01T13:40:28.244Z,7.17
2022-12-01T13:43:32.273Z,6.99
2022-12-01T13:46:45.456Z,6.84
2022-12-01T13:49:50.199Z,6.67
2022-12-01T13:53:13.118Z,6.58
2022-12-01T13:56:15.971Z,6.44
2022-12-01T14:00:00.579Z,6.37
2022-12-01T14:03:12.837Z,6.21
2022-12-01T14:06:49.367Z,6.10
2022-12-01T14:09:56.452Z,6.04
2022-12-01T14:13:05.487Z,5.91
2022-12-01T14:16:08.858Z,5.80
2022-12-01T14:19:33.264Z,5.74
2022-12-01T14:22:44.069Z,5.70
2022-12-01T14:26:11.713Z,5.57
2022-12-01T14:29:43.979Z,5.49
2022-12-01T14:32:47.196Z,5.42
2022-12-01T14:35:50.680Z,5.26
2022-12-01T14:38:59.840Z,5.17
2022-12-01T14:43:01.498Z,5.04
2022-12-01T14:46:10.519Z,4.88
2022-12-01T14:49:24.173Z,4.82
2022-12-01T14:52:27.119Z,4.80
2022-12-01T14:55:50.331Z,4.68
2022-12-01T14:58:57.409Z,4.64
2022-12-01T15:02:09.317Z,4.45
2022-12-01T15:05:26.027Z,4.24
2022-12-01T15:08:41.881Z,4.17
2022-12-01T15:11:58.820Z,4.07
2022-12-01T15:15:01.454Z,3.73
2022-12-01T15:18:21.884Z,3.69
2022-12-01T15:21:30.871Z,3.72
2022-12-01T15:24:34.279Z,3.80
2022-12-01T15:27:38.112Z,3.77
2022-12-01T15:30:42.877Z,3.92
2022-12-01T15:33:51.660Z,3.83
2022-12-01T15:36:56.220Z,3.76
2022-12-01T15:43:33.167Z,3.68
2022-12-01T15:46:35.787Z,3.77
2022-12-01T15:49:49.475Z,3.77
2022-12-01T15:52:52.358Z,3.76
2022-12-01T15:55:59.289Z,3.55
2022-12-01T15:59:09.967Z,3.52
2022-12-01T16:02:32.908Z,3.54
2022-12-01T16:08:39.272Z,3.60
2022-12-01T16:12:17.742Z,3.63
2022-12-01T16:15:22.921Z,3.74
2022-12-01T16:18:32.149Z,3.68
2022-12-01T16:21:47.476Z,3.60
2022-12-01T16:24:56.358Z,3.55
2022-12-01T16:28:01.588Z,3.59
2022-12-01T16:31:06.395Z,3.71
2022-12-01T16:34:44.089Z,3.63
2022-12-01T16:37:40.221Z,3.53
2022-12-01T16:40:44.323Z,3.60
2022-12-01T16:44:12.603Z,3.48
2022-12-01T16:47:14.950Z,3.45
2022-12-01T16:50:22.671Z,3.52
2022-12-01T16:53:26.480Z,3.53
2022-12-01T16:56:29.555Z,3.42
2022-12-01T16:59:32.677Z,3.54
2022-12-01T17:02:36.125Z,3.54
2022-12-01T17:05:41.346Z,3.50
2022-12-01T17:08:46.326Z,3.39
2022-12-01T17:11:49.187Z,3.42
2022-12-01T17:14:52.437Z,3.39
2022-12-01T17:17:55.461Z,3.46
2022-12-01T17:21:07.606Z,3.37
2022-12-01T17:24:10.167Z,3.54
2022-12-01T17:27:13.571Z,3.52
2022-12-01T17:30:17.075Z,3.48
2022-12-01T17:33:20.377Z,3.26
2022-12-01T17:36:27.654Z,3.35
2022-12-01T17:39:30.922Z,3.45
2022-12-01T17:42:34.534Z,3.22
2022-12-01T17:45:42.224Z,3.13
2022-12-01T17:48:46.769Z,3.11
2022-12-01T17:51:49.893Z,3.11
2022-12-01T17:54:52.856Z,3.00
2022-12-01T17:57:56.627Z,2.91
2022-12-01T18:01:00.708Z,3.01
2022-12-01T18:04:07.210Z,2.70
2022-12-01T18:07:10.313Z,2.91
2022-12-01T18:10:13.841Z,2.95
2022-12-01T18:13:20.345Z,3.11
2022-12-01T18:16:28.377Z,3.16
2022-12-01T18:19:32.812Z,3.18
2022-12-01T18:22:36.492Z,3.07
2022-12-01T18:25:40.440Z,3.03
2022-12-01T18:28:43.989Z,3.06
2022-12-01T18:31:47.828Z,3.05
2022-12-01T18:34:51.519Z,3.09
2022-12-01T18:37:54.624Z,3.04
2022-12-01T18:40:59.552Z,3.16
2022-12-01T18:44:03.403Z,3.08
2022-12-01T18:47:07.272Z,2.78
2022-12-01T18:50:10.625Z,2.78
2022-12-01T18:53:14.830Z,2.70
2022-12-01T18:56:20.666Z,2.86
2022-12-01T18:59:23.986Z,2.79
2022-12-01T19:02:27.204Z,2.67
2022-12-01T19:05:33.883Z,2.64
2022-12-01T19:08:36.912Z,2.70
2022-12-01T19:11:41.326Z,2.72
2022-12-01T19:24:11.682Z,2.50
2022-12-01T19:27:15.646Z,2.51
2022-12-01T19:30:20.028Z,2.37
2022-12-01T19:33:23.617Z,2.49
2022-12-01T19:36:29.837Z,2.46
2022-12-01T19:39:33.638Z,2.38
2022-12-01T19:42:37.350Z,2.35
2022-12-01T19:45:40.454Z,2.28
2022-12-01T19:48:43.897Z,2.23
2022-12-01T19:51:47.226Z,2.10
2022-12-01T19:54:51.622Z,2.08
2022-12-01T19:57:55.096Z,2.20
2022-12-01T20:01:06.565Z,2.19
2022-12-01T20:04:10.062Z,2.28
2022-12-01T20:07:13.410Z,2.34
2022-12-01T20:10:20.616Z,2.44
2022-12-01T20:13:23.750Z,2.33
2022-12-01T20:16:28.744Z,2.44
2022-12-01T20:19:31.953Z,2.40
2022-12-01T20:22:40.079Z,2.38
2022-12-01T20:25:44.100Z,2.41
2022-12-01T20:28:50.933Z,2.35
2022-12-01T20:31:55.868Z,2.33
2022-12-01T20:34:59.434Z,2.36
2022-12-01T20:38:02.601Z,2.36
2022-12-01T20:41:06.839Z,2.43
2022-12-01T20:44:10.976Z,2.52
2022-12-01T20:47:17.932Z,2.24
2022-12-01T20:50:24.410Z,2.42
2022-12-01T20:53:27.919Z,2.25
2022-12-01T20:56:31.314Z,2.29
2022-12-01T20:59:36.434Z,2.47
2022-12-01T21:02:39.690Z,2.55
2022-12-01T21:05:44.393Z,2.47
2022-12-01T21:08:48.506Z,2.35
2022-12-01T21:12:11.776Z,2.47
2022-12-01T21:15:30.243Z,2.37
2022-12-01T21:18:53.488Z,2.36
2022-12-01T21:21:56.488Z,2.32
2022-12-01T21:25:17.346Z,2.46
2022-12-01T21:28:25.591Z,2.30
2022-12-01T21:31:29.238Z,2.11
2022-12-01T21:34:34.958Z,2.13
2022-12-01T21:37:37.944Z,2.04
2022-12-01T21:40:43.960Z,1.69
2022-12-01T21:43:46.905Z,1.87
2022-12-01T21:46:58.086Z,1.79
2022-12-01T21:50:09.564Z,1.49
2022-12-01T21:53:19.306Z,1.49
2022-12-01T21:56:25.608Z,1.31
2022-12-01T21:59:28.206Z,1.23
2022-12-01T22:03:00.601Z,1.23
2022-12-01T22:06:30.180Z,0.98
2022-12-01T22:09:36.632Z,0.77
2022-12-01T22:12:39.532Z,0.87
2022-12-01T22:15:42.222Z,0.90
2022-12-01T22:18:52.250Z,0.70
2022-12-01T22:22:24.958Z,0.83
2022-12-01T22:25:28.616Z,0.81
2022-12-01T22:28:31.382Z,0.80
2022-12-01T22:31:36.279Z,0.79
2022-12-01T22:34:57.972Z,0.36
2022-12-01T22:38:21.696Z,0.44
2022-12-01T22:41:24.334Z,0.63
2022-12-01T22:44:30.695Z,0.85
2022-12-01T22:47:33.392Z,0.75
2022-12-01T22:50:37.435Z,0.66
2022-12-01T22:53:41.604Z,0.58
2022-12-01T22:56:46.724Z,0.66
2022-12-01T22:59:50.478Z,0.70
2022-12-01T23:02:55.903Z,0.60
2022-12-01T23:05:58.682Z,0.36
2022-12-01T23:09:02.059Z,0.06
2022-12-01T23:12:10.605Z,-0.01
2022-12-01T23:15:25.630Z,0.13
2022-12-01T23:18:32.198Z,0.03
2022-12-01T23:21:35.656Z,0.06
2022-12-01T23:24:40.018Z,0.05
2022-12-01T23:27:46.255Z,0.03
2022-12-01T23:30:53.296Z,0.10
2022-12-01T23:33:56.239Z,0.04
2022-12-01T23:36:58.788Z,0.06
2022-12-01T23:40:08.106Z,0.30
2022-12-01T23:43:25.500Z,0.25
2022-12-01T23:46:28.671Z,0.39
2022-12-01T23:49:34.947Z,0.35
2022-12-01T23:52:41.875Z,0.41
2022-12-01T23:55:44.476Z,0.12
2022-12-01T23:58:49.078Z,-0.21
